Toast, NC

10:28 PM EDT on May 04, 2015 (GMT -0400)
Brims Grove Community | | Change Station
CLOSE
Current Station
Personal Weather Station
Location: Pinnacle, NC
Elevation: 1184 ft
Nearby Weather Stations

Elev 1184 ft 36.39 °N, 80.40 °W | Updated 13 minutes ago

Clear
Clear
66.9 °F
Feels Like 66.9 °F
N
1.7
Wind Variable Wind from NNE

Today
High -- | Low -- °F
--% Chance of Precip.
Yesterday
High -- | Low -- °F
Precip. -- in
6:26 AM 8:13 PM
Full, 99% visible
Pressure 30.30 in
Visibility -9999.0 miles
Clouds Clear
Dew Point 53 °F
Humidity 62%
Rainfall 0.00 in
Snow Depth Not available.
UV 0 out of 12
Pollen 9.30 out of 12
Air Quality Not available.
Flu Activity No Activity
METAR KMWK 050215Z AUTO 00000KT CLR 19/13 A3030 RMK AO2 T01900128 PWINO

More Conditions Fewer Conditions

Pressure 30.30 in
Visibility -9999.0 miles
Clouds Clear
Dew Point 53 °F
Humidity 62%
Rainfall 0.00 in
Snow Depth Not available.
UV 0 out of 12
Pollen 9.30 out of 12
Air Quality Not available.
Flu Activity No Activity
METAR KMWK 050215Z AUTO 00000KT CLR 19/13 A3030 RMK AO2 T01900128 PWINO

More Conditions Fewer Conditions

Nepal has a long way to go to dig out and rebuild from a devastating earthquake. We have teamed up with several charities and organizations to make contributing to the relief effort as easy as possible.
How you can help: Portlight Strategies | Red Cross

10-Day Weather Forecast

Almanac

Astronomy

May. 04, 2015 Rise Set
Actual Time
Civil Twilight
Nautical Twilight
Astronomical Twilight
Moon
Length of Visible Light
Length of Day
Tomorrow will be .
, % of the Moon is Illuminated

Today's Extremes

State Highs State Lows

Community

WunderPhotos

Upload Photos

1,818,785 photos uploaded!

WunderBlogs® & News

Nearby

Air Quality

  Air Quality AQ Index Pollutant
Not available.

Snow Depth

Station Depth Elevation

Earthquake Activity

City Distance Mag. Time & Date
Minimum magnitude displayed is 2.5.

Coastal Water Temperatures

Place Temperature

Stations

Nearby Weather Stations

Station Location Temp. Windchill Dew Point Humidity Wind Precip. Elev Updated Type